sensor_id;sensor_type;location;lat;lon;timestamp;pressure;altitude;pressure_sealevel;temperature;humidity
29331;BME280;16331;52.528;13.342;2023-06-22T00:00:18;161986.38;;;22.83;100.00
29331;BME280;16331;52.528;13.342;2023-06-22T00:02:45;161979.44;;;22.81;100.00
29331;BME280;16331;52.528;13.342;2023-06-22T00:05:12;162007.16;;;22.91;100.00
29331;BME280;16331;52.528;13.342;2023-06-22T00:07:38;162037.66;;;23.02;100.00
29331;BME280;16331;52.528;13.342;2023-06-22T00:10:05;161976.66;;;22.80;100.00
29331;BME280;16331;52.528;13.342;2023-06-22T00:12:31;161951.75;;;22.71;100.00
29331;BME280;16331;52.528;13.342;2023-06-22T00:14:58;161936.47;;;22.65;100.00
29331;BME280;16331;52.528;13.342;2023-06-22T00:17:24;161972.53;;;22.78;100.00
29331;BME280;16331;52.528;13.342;2023-06-22T00:19:50;162030.75;;;23.00;100.00
29331;BME280;16331;52.528;13.342;2023-06-22T00:22:19;161953.09;;;22.71;100.00
29331;BME280;16331;52.528;13.342;2023-06-22T00:24:54;161935.06;;;22.65;100.00
29331;BME280;16331;52.528;13.342;2023-06-22T00:27:21;161928.16;;;22.62;100.00
29331;BME280;16331;52.528;13.342;2023-06-22T00:29:47;161928.16;;;22.62;100.00
29331;BME280;16331;52.528;13.342;2023-06-22T00:32:13;161933.72;;;22.64;100.00
29331;BME280;16331;52.528;13.342;2023-06-22T00:34:39;161947.59;;;22.69;100.00
29331;BME280;16331;52.528;13.342;2023-06-22T00:37:05;161924.00;;;22.61;100.00
29331;BME280;16331;52.528;13.342;2023-06-22T00:39:32;161928.16;;;22.62;100.00
29331;BME280;16331;52.528;13.342;2023-06-22T00:42:00;161864.34;;;22.39;100.00
29331;BME280;16331;52.528;13.342;2023-06-22T00:44:26;161842.16;;;22.31;100.00
29331;BME280;16331;52.528;13.342;2023-06-22T00:46:53;161819.97;;;22.23;100.00
29331;BME280;16331;52.528;13.342;2023-06-22T00:49:20;161851.88;;;22.35;100.00
29331;BME280;16331;52.528;13.342;2023-06-22T00:51:47;161800.63;;;22.16;100.00
29331;BME280;16331;52.528;13.342;2023-06-22T00:54:14;161781.19;;;22.09;100.00
29331;BME280;16331;52.528;13.342;2023-06-22T00:56:41;161826.94;;;22.26;100.00
29331;BME280;16331;52.528;13.342;2023-06-22T00:59:08;161831.09;;;22.27;100.00
29331;BME280;16331;52.528;13.342;2023-06-22T01:01:38;161795.06;;;22.14;100.00
29331;BME280;16331;52.528;13.342;2023-06-22T01:04:07;161799.22;;;22.16;100.00
29331;BME280;16331;52.528;13.342;2023-06-22T01:06:41;161792.31;;;22.13;100.00
29331;BME280;16331;52.528;13.342;2023-06-22T01:09:18;161764.59;;;22.03;100.00
29331;BME280;16331;52.528;13.342;2023-06-22T01:11:50;161753.53;;;21.99;100.00
29331;BME280;16331;52.528;13.342;2023-06-22T01:14:26;161750.72;;;21.98;100.00
29331;BME280;16331;52.528;13.342;2023-06-22T01:16:55;161778.44;;;22.08;100.00
29331;BME280;16331;52.528;13.342;2023-06-22T01:19:48;161789.50;;;22.12;100.00
29331;BME280;16331;52.528;13.342;2023-06-22T01:22:22;161754.88;;;22.00;100.00
29331;BME280;16331;52.528;13.342;2023-06-22T01:24:59;161724.41;;;21.89;100.00
29331;BME280;16331;52.528;13.342;2023-06-22T01:28:23;161806.16;;;22.18;100.00
29331;BME280;16331;52.528;13.342;2023-06-22T01:30:28;161836.66;;;22.29;100.00
29331;BME280;16331;52.528;13.342;2023-06-22T01:32:57;161803.38;;;22.17;100.00
29331;BME280;16331;52.528;13.342;2023-06-22T01:35:24;161800.63;;;22.16;100.00
29331;BME280;16331;52.528;13.342;2023-06-22T01:37:51;161803.38;;;22.17;100.00
29331;BME280;16331;52.528;13.342;2023-06-22T01:40:17;161844.97;;;22.32;100.00
29331;BME280;16331;52.528;13.342;2023-06-22T01:42:46;161861.56;;;22.38;100.00
29331;BME280;16331;52.528;13.342;2023-06-22T01:45:15;161861.56;;;22.38;100.00
29331;BME280;16331;52.528;13.342;2023-06-22T01:47:42;161849.13;;;22.34;100.00
29331;BME280;16331;52.528;13.342;2023-06-22T01:50:09;161836.66;;;22.29;100.00
29331;BME280;16331;52.528;13.342;2023-06-22T01:52:36;161800.63;;;22.16;100.00
29331;BME280;16331;52.528;13.342;2023-06-22T01:55:08;161765.97;;;22.04;100.00
29331;BME280;16331;52.528;13.342;2023-06-22T01:57:36;161728.56;;;21.90;100.00
29331;BME280;16331;52.528;13.342;2023-06-22T02:00:05;161747.97;;;21.97;100.00
29331;BME280;16331;52.528;13.342;2023-06-22T02:02:54;161718.84;;;21.87;100.00
29331;BME280;16331;52.528;13.342;2023-06-22T02:05:25;161705.03;;;21.82;100.00
29331;BME280;16331;52.528;13.342;2023-06-22T02:08:07;161734.13;;;21.92;100.00
29331;BME280;16331;52.528;13.342;2023-06-22T02:10:36;161749.31;;;21.98;100.00
29331;BME280;16331;52.528;13.342;2023-06-22T02:13:06;161761.84;;;22.02;100.00
29331;BME280;16331;52.528;13.342;2023-06-22T02:15:34;161736.88;;;21.93;100.00
29331;BME280;16331;52.528;13.342;2023-06-22T02:18:01;161735.50;;;21.93;100.00
29331;BME280;16331;52.528;13.342;2023-06-22T02:20:27;161761.84;;;22.02;100.00
29331;BME280;16331;52.528;13.342;2023-06-22T02:22:53;161756.28;;;22.00;100.00
29331;BME280;16331;52.528;13.342;2023-06-22T02:25:20;161782.59;;;22.10;100.00
29331;BME280;16331;52.528;13.342;2023-06-22T02:27:47;161797.88;;;22.15;100.00
29331;BME280;16331;52.528;13.342;2023-06-22T02:30:14;161822.78;;;22.24;100.00
29331;BME280;16331;52.528;13.342;2023-06-22T02:32:42;161847.72;;;22.33;100.00
29331;BME280;16331;52.528;13.342;2023-06-22T02:35:09;161862.97;;;22.39;100.00
29331;BME280;16331;52.528;13.342;2023-06-22T02:37:40;161858.81;;;22.37;100.00
29331;BME280;16331;52.528;13.342;2023-06-22T02:40:07;161849.13;;;22.34;100.00
29331;BME280;16331;52.528;13.342;2023-06-22T02:42:39;161889.31;;;22.48;100.00
29331;BME280;16331;52.528;13.342;2023-06-22T02:45:06;161865.72;;;22.40;100.00
29331;BME280;16331;52.528;13.342;2023-06-22T02:47:33;161826.94;;;22.26;100.00
29331;BME280;16331;52.528;13.342;2023-06-22T02:50:02;161871.28;;;22.42;100.00
29331;BME280;16331;52.528;13.342;2023-06-22T02:52:28;161824.19;;;22.25;100.00
29331;BME280;16331;52.528;13.342;2023-06-22T02:54:54;161810.31;;;22.20;100.00
29331;BME280;16331;52.528;13.342;2023-06-22T02:57:21;161765.97;;;22.04;100.00
29331;BME280;16331;52.528;13.342;2023-06-22T02:59:47;161792.31;;;22.13;100.00
29331;BME280;16331;52.528;13.342;2023-06-22T03:02:13;161838.00;;;22.30;100.00
29331;BME280;16331;52.528;13.342;2023-06-22T03:04:39;161818.63;;;22.23;100.00
29331;BME280;16331;52.528;13.342;2023-06-22T03:07:05;161817.22;;;22.22;100.00
29331;BME280;16331;52.528;13.342;2023-06-22T03:09:31;161847.72;;;22.33;100.00
29331;BME280;16331;52.528;13.342;2023-06-22T03:11:58;161839.41;;;22.30;100.00
29331;BME280;16331;52.528;13.342;2023-06-22T03:14:24;161872.69;;;22.42;100.00
29331;BME280;16331;52.528;13.342;2023-06-22T03:16:50;161843.56;;;22.32;100.00
29331;BME280;16331;52.528;13.342;2023-06-22T03:19:16;161844.97;;;22.32;100.00
29331;BME280;16331;52.528;13.342;2023-06-22T03:21:43;161850.53;;;22.34;100.00
29331;BME280;16331;52.528;13.342;2023-06-22T03:24:10;161847.72;;;22.33;100.00
29331;BME280;16331;52.528;13.342;2023-06-22T03:26:36;161858.81;;;22.37;100.00
29331;BME280;16331;52.528;13.342;2023-06-22T03:29:02;161869.88;;;22.41;100.00
29331;BME280;16331;52.528;13.342;2023-06-22T03:31:31;161817.22;;;22.22;100.00
29331;BME280;16331;52.528;13.342;2023-06-22T03:33:58;161858.81;;;22.37;100.00
29331;BME280;16331;52.528;13.342;2023-06-22T03:36:24;161828.34;;;22.26;100.00
29331;BME280;16331;52.528;13.342;2023-06-22T03:38:51;161878.19;;;22.44;100.00
29331;BME280;16331;52.528;13.342;2023-06-22T03:41:18;161875.44;;;22.43;100.00
29331;BME280;16331;52.528;13.342;2023-06-22T03:43:48;161793.66;;;22.14;100.00
29331;BME280;16331;52.528;13.342;2023-06-22T03:46:14;161813.06;;;22.21;100.00
29331;BME280;16331;52.528;13.342;2023-06-22T03:48:40;161868.53;;;22.41;100.00
29331;BME280;16331;52.528;13.342;2023-06-22T03:51:07;161917.09;;;22.58;100.00
29331;BME280;16331;52.528;13.342;2023-06-22T03:53:33;161922.59;;;22.60;100.00
29331;BME280;16331;52.528;13.342;2023-06-22T03:56:00;161883.75;;;22.46;100.00
29331;BME280;16331;52.528;13.342;2023-06-22T03:58:27;161868.53;;;22.41;100.00
29331;BME280;16331;52.528;13.342;2023-06-22T04:00:59;161907.38;;;22.55;100.00
29331;BME280;16331;52.528;13.342;2023-06-22T04:03:26;161860.16;;;22.38;100.00
29331;BME280;16331;52.528;13.342;2023-06-22T04:05:53;161881.00;;;22.45;100.00
29331;BME280;16331;52.528;13.342;2023-06-22T04:08:20;161922.59;;;22.60;100.00
29331;BME280;16331;52.528;13.342;2023-06-22T04:10:46;161904.56;;;22.54;100.00
29331;BME280;16331;52.528;13.342;2023-06-22T04:13:12;161868.53;;;22.41;100.00
29331;BME280;16331;52.528;13.342;2023-06-22T04:15:39;161850.53;;;22.34;100.00
29331;BME280;16331;52.528;13.342;2023-06-22T04:18:06;161851.88;;;22.35;100.00
29331;BME280;16331;52.528;13.342;2023-06-22T04:20:32;161917.09;;;22.58;100.00
29331;BME280;16331;52.528;13.342;2023-06-22T04:22:58;161939.28;;;22.66;100.00
29331;BME280;16331;52.528;13.342;2023-06-22T04:25:25;162012.72;;;22.93;100.00
29331;BME280;16331;52.528;13.342;2023-06-22T04:27:51;161937.88;;;22.66;100.00
29331;BME280;16331;52.528;13.342;2023-06-22T04:30:17;162036.31;;;23.02;100.00
29331;BME280;16331;52.528;13.342;2023-06-22T04:32:44;162138.94;;;23.39;100.00
29331;BME280;16331;52.528;13.342;2023-06-22T04:35:11;162288.81;;;23.93;100.00
29331;BME280;16331;52.528;13.342;2023-06-22T04:37:38;162356.81;;;24.17;100.00
29331;BME280;16331;52.528;13.342;2023-06-22T04:40:05;162402.66;;;24.34;100.00
29331;BME280;16331;52.528;13.342;2023-06-22T04:42:38;162254.06;;;23.80;100.00
29331;BME280;16331;52.528;13.342;2023-06-22T04:45:05;162227.72;;;23.71;100.00
29331;BME280;16331;52.528;13.342;2023-06-22T05:01:21;162344.34;;;24.13;100.00
29331;BME280;16331;52.528;13.342;2023-06-22T05:03:48;162560.94;;;24.91;100.00
29331;BME280;16331;52.528;13.342;2023-06-22T05:12:47;162644.25;;;25.21;100.00
29331;BME280;16331;52.528;13.342;2023-06-22T05:15:13;162588.75;;;25.01;100.00
29331;BME280;16331;52.528;13.342;2023-06-22T05:17:40;162647.06;;;25.22;100.00
29331;BME280;16331;52.528;13.342;2023-06-22T05:20:09;162635.94;;;25.18;100.00
29331;BME280;16331;52.528;13.342;2023-06-22T05:22:36;162605.38;;;25.07;100.00
29331;BME280;16331;52.528;13.342;2023-06-22T05:25:02;162485.94;;;24.64;100.00
29331;BME280;16331;52.528;13.342;2023-06-22T05:27:30;162502.63;;;24.70;100.00
29331;BME280;16331;52.528;13.342;2023-06-22T05:29:59;162480.34;;;24.62;100.00
29331;BME280;16331;52.528;13.342;2023-06-22T05:32:27;162474.84;;;24.60;100.00
29331;BME280;16331;52.528;13.342;2023-06-22T05:34:53;162477.59;;;24.61;100.00
29331;BME280;16331;52.528;13.342;2023-06-22T05:37:20;162467.88;;;24.58;100.00
29331;BME280;16331;52.528;13.342;2023-06-22T05:39:46;162472.03;;;24.59;100.00
29331;BME280;16331;52.528;13.342;2023-06-22T05:42:12;162522.09;;;24.77;100.00
29331;BME280;16331;52.528;13.342;2023-06-22T05:44:39;162608.13;;;25.08;100.00
29331;BME280;16331;52.528;13.342;2023-06-22T05:47:08;162601.22;;;25.06;100.00
29331;BME280;16331;52.528;13.342;2023-06-22T05:49:46;162640.09;;;25.20;100.00
29331;BME280;16331;52.528;13.342;2023-06-22T05:52:14;162683.25;;;25.35;100.00
29331;BME280;16331;52.528;13.342;2023-06-22T05:54:40;162642.91;;;25.21;100.00
29331;BME280;16331;52.528;13.342;2023-06-22T05:57:08;162608.13;;;25.08;100.00
29331;BME280;16331;52.528;13.342;2023-06-22T05:59:35;162616.53;;;25.11;100.00
29331;BME280;16331;52.528;13.342;2023-06-22T06:02:01;162555.38;;;24.89;100.00
29331;BME280;16331;52.528;13.342;2023-06-22T06:04:27;162602.63;;;25.06;100.00
29331;BME280;16331;52.528;13.342;2023-06-22T06:06:53;162480.34;;;24.62;100.00
29331;BME280;16331;52.528;13.342;2023-06-22T06:09:20;162556.78;;;24.90;100.00
29331;BME280;16331;52.528;13.342;2023-06-22T06:11:46;162588.75;;;25.01;100.00
29331;BME280;16331;52.528;13.342;2023-06-22T06:14:12;162598.47;;;25.05;100.00
29331;BME280;16331;52.528;13.342;2023-06-22T06:16:38;162702.66;;;25.42;100.00
29331;BME280;16331;52.528;13.342;2023-06-22T06:19:05;162680.44;;;25.34;100.00
29331;BME280;16331;52.528;13.342;2023-06-22T06:21:31;162642.91;;;25.21;100.00
29331;BME280;16331;52.528;13.342;2023-06-22T06:23:57;162619.28;;;25.12;100.00
29331;BME280;16331;52.528;13.342;2023-06-22T06:26:23;162635.94;;;25.18;100.00
29331;BME280;16331;52.528;13.342;2023-06-22T06:28:55;162662.31;;;25.28;100.00
29331;BME280;16331;52.528;13.342;2023-06-22T06:31:21;162708.22;;;25.44;100.00
29331;BME280;16331;52.528;13.342;2023-06-22T06:33:47;162692.94;;;25.39;100.00
29331;BME280;16331;52.528;13.342;2023-06-22T06:36:13;162691.56;;;25.38;100.00
29331;BME280;16331;52.528;13.342;2023-06-22T06:38:40;162660.97;;;25.27;100.00
29331;BME280;16331;52.528;13.342;2023-06-22T06:41:06;162588.75;;;25.01;100.00
29331;BME280;16331;52.528;13.342;2023-06-22T06:43:32;162605.38;;;25.07;100.00
29331;BME280;16331;52.528;13.342;2023-06-22T06:45:58;162652.59;;;25.24;100.00
29331;BME280;16331;52.528;13.342;2023-06-22T06:48:24;162608.13;;;25.08;100.00
29331;BME280;16331;52.528;13.342;2023-06-22T06:50:50;162805.47;;;25.80;100.00
29331;BME280;16331;52.528;13.342;2023-06-22T06:53:18;162822.16;;;25.86;100.00
29331;BME280;16331;52.528;13.342;2023-06-22T06:55:44;162799.91;;;25.78;100.00
29331;BME280;16331;52.528;13.342;2023-06-22T06:58:11;162791.59;;;25.75;100.00
29331;BME280;16331;52.528;13.342;2023-06-22T07:00:39;162763.78;;;25.64;100.00
29331;BME280;16331;52.528;13.342;2023-06-22T07:03:06;162759.63;;;25.63;100.00
29331;BME280;16331;52.528;13.342;2023-06-22T07:05:33;162880.56;;;26.07;100.00
29331;BME280;16331;52.528;13.342;2023-06-22T07:07:59;162943.13;;;26.29;97.55
29331;BME280;16331;52.528;13.342;2023-06-22T07:10:25;163015.44;;;26.55;96.44
29331;BME280;16331;52.528;13.342;2023-06-22T07:12:51;163132.25;;;26.97;94.41
29331;BME280;16331;52.528;13.342;2023-06-22T07:15:18;163139.25;;;27.00;91.58
29331;BME280;16331;52.528;13.342;2023-06-22T07:17:50;163080.81;;;26.79;95.76
29331;BME280;16331;52.528;13.342;2023-06-22T07:20:16;163118.34;;;26.92;94.61
29331;BME280;16331;52.528;13.342;2023-06-22T07:22:45;163274.19;;;27.49;92.99
29331;BME280;16331;52.528;13.342;2023-06-22T07:25:20;163311.78;;;27.62;89.63
29331;BME280;16331;52.528;13.342;2023-06-22T07:27:57;163423.19;;;28.02;86.12
29331;BME280;16331;52.528;13.342;2023-06-22T07:30:24;163441.28;;;28.09;85.29
29331;BME280;16331;52.528;13.342;2023-06-22T07:32:56;163389.75;;;27.90;80.75
29331;BME280;16331;52.528;13.342;2023-06-22T07:35:29;163307.63;;;27.61;79.59
29331;BME280;16331;52.528;13.342;2023-06-22T07:37:56;163386.97;;;27.89;78.35
29331;BME280;16331;52.528;13.342;2023-06-22T07:40:24;163331.22;;;27.69;76.24
29331;BME280;16331;52.528;13.342;2023-06-22T07:42:56;163403.66;;;27.95;75.99
29331;BME280;16331;52.528;13.342;2023-06-22T07:45:31;163492.75;;;28.27;70.64
29331;BME280;16331;52.528;13.342;2023-06-22T07:48:01;163576.34;;;28.58;68.47
29331;BME280;16331;52.528;13.342;2023-06-22T07:50:27;163580.50;;;28.59;65.26
29331;BME280;16331;52.528;13.342;2023-06-22T07:52:59;163569.41;;;28.55;65.79
29331;BME280;16331;52.528;13.342;2023-06-22T07:55:51;163382.75;;;27.88;67.25
29331;BME280;16331;52.528;13.342;2023-06-22T07:58:17;163399.50;;;27.94;68.16
29331;BME280;16331;52.528;13.342;2023-06-22T08:00:47;163295.09;;;27.56;70.43
29331;BME280;16331;52.528;13.342;2023-06-22T08:03:15;163270.03;;;27.47;68.99
29331;BME280;16331;52.528;13.342;2023-06-22T08:05:41;163311.78;;;27.62;67.43
29331;BME280;16331;52.528;13.342;2023-06-22T08:08:07;163502.50;;;28.31;65.32
29331;BME280;16331;52.528;13.342;2023-06-22T08:10:34;163540.06;;;28.45;60.19
29331;BME280;16331;52.528;13.342;2023-06-22T08:13:00;163370.25;;;27.83;62.52
29331;BME280;16331;52.528;13.342;2023-06-22T08:15:27;163549.88;;;28.48;61.56
29331;BME280;16331;52.528;13.342;2023-06-22T08:17:53;163577.75;;;28.58;63.59
29331;BME280;16331;52.528;13.342;2023-06-22T08:20:19;163572.16;;;28.56;60.16
29331;BME280;16331;52.528;13.342;2023-06-22T08:22:45;163481.66;;;28.23;62.28
29331;BME280;16331;52.528;13.342;2023-06-22T08:25:12;163427.34;;;28.04;66.66
29331;BME280;16331;52.528;13.342;2023-06-22T08:27:39;163498.34;;;28.29;66.22
29331;BME280;16331;52.528;13.342;2023-06-22T08:30:07;163521.97;;;28.38;64.52
29331;BME280;16331;52.528;13.342;2023-06-22T08:32:33;163331.22;;;27.69;65.81
29331;BME280;16331;52.528;13.342;2023-06-22T08:35:01;163414.84;;;27.99;65.01
29331;BME280;16331;52.528;13.342;2023-06-22T08:37:27;163318.72;;;27.65;65.69
29331;BME280;16331;52.528;13.342;2023-06-22T08:40:01;163320.13;;;27.65;66.20
29331;BME280;16331;52.528;13.342;2023-06-22T08:42:27;163556.88;;;28.51;62.61
29331;BME280;16331;52.528;13.342;2023-06-22T08:44:53;163555.47;;;28.50;63.14
29331;BME280;16331;52.528;13.342;2023-06-22T08:47:20;163540.06;;;28.45;63.82
29331;BME280;16331;52.528;13.342;2023-06-22T08:49:47;163490.00;;;28.26;64.15
29331;BME280;16331;52.528;13.342;2023-06-22T08:52:14;163499.69;;;28.30;62.89
29331;BME280;16331;52.528;13.342;2023-06-22T08:54:41;163510.88;;;28.34;64.24
29331;BME280;16331;52.528;13.342;2023-06-22T08:57:08;163584.69;;;28.61;62.77
29331;BME280;16331;52.528;13.342;2023-06-22T08:59:34;163568.00;;;28.55;61.50
29331;BME280;16331;52.528;13.342;2023-06-22T09:02:00;163604.19;;;28.68;60.35
29331;BME280;16331;52.528;13.342;2023-06-22T09:04:32;163545.66;;;28.47;59.06
29331;BME280;16331;52.528;13.342;2023-06-22T09:07:02;163626.47;;;28.76;60.69
29331;BME280;16331;52.528;13.342;2023-06-22T09:09:28;163703.09;;;29.03;59.55
29331;BME280;16331;52.528;13.342;2023-06-22T09:11:56;163608.38;;;28.69;61.86
29331;BME280;16331;52.528;13.342;2023-06-22T09:14:23;163859.19;;;29.59;56.53
29331;BME280;16331;52.528;13.342;2023-06-22T09:16:50;163986.03;;;30.05;56.32
29331;BME280;16331;52.528;13.342;2023-06-22T09:19:16;163919.13;;;29.81;56.98
29331;BME280;16331;52.528;13.342;2023-06-22T09:21:44;163919.13;;;29.81;57.84
29331;BME280;16331;52.528;13.342;2023-06-22T09:24:10;163972.09;;;30.00;58.35
29331;BME280;16331;52.528;13.342;2023-06-22T09:26:36;163887.06;;;29.69;55.89
29331;BME280;16331;52.528;13.342;2023-06-22T09:29:04;163947.03;;;29.91;55.09
29331;BME280;16331;52.528;13.342;2023-06-22T09:31:34;163896.84;;;29.73;54.53
29331;BME280;16331;52.528;13.342;2023-06-22T09:34:01;163832.72;;;29.50;54.76
29331;BME280;16331;52.528;13.342;2023-06-22T09:36:30;163856.38;;;29.58;54.16
29331;BME280;16331;52.528;13.342;2023-06-22T09:39:01;163908.00;;;29.77;54.69
29331;BME280;16331;52.528;13.342;2023-06-22T09:41:33;163919.13;;;29.81;55.04
29331;BME280;16331;52.528;13.342;2023-06-22T09:43:59;163902.44;;;29.75;54.28
29331;BME280;16331;52.528;13.342;2023-06-22T09:46:25;163889.91;;;29.71;54.03
29331;BME280;16331;52.528;13.342;2023-06-22T09:49:03;163763.03;;;29.25;56.24
29331;BME280;16331;52.528;13.342;2023-06-22T09:51:32;163718.44;;;29.09;58.14
29331;BME280;16331;52.528;13.342;2023-06-22T09:53:59;163611.13;;;28.70;60.17
29331;BME280;16331;52.528;13.342;2023-06-22T09:56:25;163526.19;;;28.40;62.99
29331;BME280;16331;52.528;13.342;2023-06-22T09:58:56;163616.72;;;28.72;61.80
29331;BME280;16331;52.528;13.342;2023-06-22T10:01:22;163802.00;;;29.39;59.95
29331;BME280;16331;52.528;13.342;2023-06-22T10:03:49;163761.66;;;29.24;58.41
29331;BME280;16331;52.528;13.342;2023-06-22T10:06:15;163744.91;;;29.18;58.71
29331;BME280;16331;52.528;13.342;2023-06-22T10:08:41;163625.06;;;28.75;59.45
29331;BME280;16331;52.528;13.342;2023-06-22T10:11:17;163700.28;;;29.02;60.19
29331;BME280;16331;52.528;13.342;2023-06-22T10:13:44;163843.84;;;29.54;60.00
29331;BME280;16331;52.528;13.342;2023-06-22T10:16:15;163928.91;;;29.85;57.86
29331;BME280;16331;52.528;13.342;2023-06-22T10:18:43;163788.13;;;29.34;59.35
29331;BME280;16331;52.528;13.342;2023-06-22T10:21:09;163909.38;;;29.78;59.32
29331;BME280;16331;52.528;13.342;2023-06-22T10:23:36;163935.84;;;29.87;59.41
29331;BME280;16331;52.528;13.342;2023-06-22T10:26:02;164126.88;;;30.56;57.78
29331;BME280;16331;52.528;13.342;2023-06-22T10:28:28;164072.56;;;30.36;57.71
29331;BME280;16331;52.528;13.342;2023-06-22T10:30:55;163959.56;;;29.96;59.95
29331;BME280;16331;52.528;13.342;2023-06-22T10:33:28;163980.44;;;30.03;59.00
29331;BME280;16331;52.528;13.342;2023-06-22T10:36:19;163963.75;;;29.97;59.91
29331;BME280;16331;52.528;13.342;2023-06-22T10:38:50;164125.53;;;30.55;56.14
29331;BME280;16331;52.528;13.342;2023-06-22T10:41:22;164128.31;;;30.56;54.77
29331;BME280;16331;52.528;13.342;2023-06-22T10:43:50;164018.13;;;30.17;56.07
29331;BME280;16331;52.528;13.342;2023-06-22T10:46:21;164149.19;;;30.64;55.32
29331;BME280;16331;52.528;13.342;2023-06-22T10:48:49;164054.41;;;30.30;55.69
29331;BME280;16331;52.528;13.342;2023-06-22T10:51:27;163775.53;;;29.29;61.15
29331;BME280;16331;52.528;13.342;2023-06-22T10:53:54;163848.00;;;29.55;61.44
29331;BME280;16331;52.528;13.342;2023-06-22T10:56:20;163952.63;;;29.93;62.07
29331;BME280;16331;52.528;13.342;2023-06-22T10:58:49;163908.00;;;29.77;62.33
29331;BME280;16331;52.528;13.342;2023-06-22T11:01:26;163914.97;;;29.80;62.12
29331;BME280;16331;52.528;13.342;2023-06-22T11:03:57;164089.28;;;30.42;58.92
29331;BME280;16331;52.528;13.342;2023-06-22T11:06:23;164231.56;;;30.93;56.29
29331;BME280;16331;52.528;13.342;2023-06-22T11:08:50;164454.84;;;31.74;52.36
29331;BME280;16331;52.528;13.342;2023-06-22T11:11:17;164521.91;;;31.98;50.85
29331;BME280;16331;52.528;13.342;2023-06-22T11:13:44;164195.28;;;30.80;54.54
29331;BME280;16331;52.528;13.342;2023-06-22T11:16:13;164111.56;;;30.50;55.24
29331;BME280;16331;52.528;13.342;2023-06-22T11:18:39;164234.34;;;30.94;53.29
29331;BME280;16331;52.528;13.342;2023-06-22T11:21:07;163991.63;;;30.07;56.39
29331;BME280;16331;52.528;13.342;2023-06-22T11:23:34;164047.41;;;30.27;56.11
29331;BME280;16331;52.528;13.342;2023-06-22T11:26:06;164041.88;;;30.25;53.53
29331;BME280;16331;52.528;13.342;2023-06-22T11:28:35;164290.16;;;31.15;50.63
29331;BME280;16331;52.528;13.342;2023-06-22T11:31:07;164376.69;;;31.46;49.94
29331;BME280;16331;52.528;13.342;2023-06-22T11:33:35;164656.00;;;32.46;46.85
29331;BME280;16331;52.528;13.342;2023-06-22T11:36:07;165075.25;;;33.97;43.54
29331;BME280;16331;52.528;13.342;2023-06-22T11:38:34;165352.19;;;34.96;40.82
29331;BME280;16331;52.528;13.342;2023-06-22T11:41:07;165290.56;;;34.74;40.00
29331;BME280;16331;52.528;13.342;2023-06-22T11:43:50;165254.19;;;34.61;40.48
29331;BME280;16331;52.528;13.342;2023-06-22T11:46:49;165034.66;;;33.82;40.94
29331;BME280;16331;52.528;13.342;2023-06-22T11:49:15;165027.63;;;33.80;41.96
29331;BME280;16331;52.528;13.342;2023-06-22T11:51:50;165140.94;;;34.20;40.87
29331;BME280;16331;52.528;13.342;2023-06-22T11:54:23;164975.94;;;33.61;42.44
29331;BME280;16331;52.528;13.342;2023-06-22T11:56:49;165258.44;;;34.62;40.49
29331;BME280;16331;52.528;13.342;2023-06-22T11:59:17;165250.00;;;34.59;40.59
29331;BME280;16331;52.528;13.342;2023-06-22T12:01:48;165651.69;;;36.03;37.88
29331;BME280;16331;52.528;13.342;2023-06-22T12:04:18;165395.53;;;35.12;38.00
29331;BME280;16331;52.528;13.342;2023-06-22T12:07:12;165413.72;;;35.18;38.82
29331;BME280;16331;52.528;13.342;2023-06-22T12:10:06;165965.44;;;37.16;34.71
29331;BME280;16331;52.528;13.342;2023-06-22T12:12:34;166133.69;;;37.76;33.42
29331;BME280;16331;52.528;13.342;2023-06-22T12:15:12;166255.63;;;38.20;32.75
29331;BME280;16331;52.528;13.342;2023-06-22T12:18:03;166146.28;;;37.81;33.55
29331;BME280;16331;52.528;13.342;2023-06-22T12:21:01;165906.59;;;36.95;33.57
29331;BME280;16331;52.528;13.342;2023-06-22T12:23:29;166259.81;;;38.21;32.82
29331;BME280;16331;52.528;13.342;2023-06-22T12:25:59;166029.94;;;37.39;33.19
29331;BME280;16331;52.528;13.342;2023-06-22T12:28:34;165794.50;;;36.55;34.09
29331;BME280;16331;52.528;13.342;2023-06-22T12:31:00;165915.00;;;36.98;34.32
29331;BME280;16331;52.528;13.342;2023-06-22T12:33:27;166324.31;;;38.44;31.91
29331;BME280;16331;52.528;13.342;2023-06-22T12:35:53;165899.63;;;36.92;32.97
29331;BME280;16331;52.528;13.342;2023-06-22T12:38:19;165759.53;;;36.42;34.10
29331;BME280;16331;52.528;13.342;2023-06-22T12:40:45;165850.56;;;36.75;33.69
29331;BME280;16331;52.528;13.342;2023-06-22T12:43:13;165230.47;;;34.52;36.68
29331;BME280;16331;52.528;13.342;2023-06-22T12:45:39;165033.25;;;33.82;38.93
29331;BME280;16331;52.528;13.342;2023-06-22T12:48:06;165142.34;;;34.21;38.26
29331;BME280;16331;52.528;13.342;2023-06-22T12:50:32;165335.38;;;34.90;37.25
29331;BME280;16331;52.528;13.342;2023-06-22T12:52:59;165395.53;;;35.12;37.64
29331;BME280;16331;52.528;13.342;2023-06-22T12:55:28;165438.91;;;35.27;37.22
29331;BME280;16331;52.528;13.342;2023-06-22T12:57:54;165174.47;;;34.32;38.05
29331;BME280;16331;52.528;13.342;2023-06-22T13:00:20;165135.31;;;34.18;38.09
29331;BME280;16331;52.528;13.342;2023-06-22T13:02:46;165128.34;;;34.16;38.67